Terminal Aerodrome Forecast
Issued by NWS North Platte, NE

Home | Current Version | Previous Version | Text Only | Print | Product List | Glossary On
Versions: 1 2 3 4 5 6 7 8 9 10 11 12 13 14 15 16 17 18
173
FTUS43 KLBF 302324
TAFLBF
TAF
KLBF 302324Z 0100/0124 36015G22KT 4SM -RASN BKN012 OVC030
     FM010600 35010G16KT 4SM BR VCSH OVC007
     FM011500 36012KT P6SM OVC020
     FM011900 36013G24KT P6SM OVC035
     FM012200 01010G16KT P6SM BKN050=

USA.gov is the U.S. government's official web portal to all federal, state and local government web resources and services.